createdAt,value
2023-04-15T00:01:00.124Z,4.50
2023-04-15T00:03:27.079Z,4.37
2023-04-15T00:05:53.882Z,4.24
2023-04-15T00:08:20.177Z,4.15
2023-04-15T00:10:46.469Z,4.23
2023-04-15T00:13:12.874Z,4.13
2023-04-15T00:15:39.301Z,3.98
2023-04-15T00:18:05.660Z,3.99
2023-04-15T00:20:31.995Z,3.92
2023-04-15T00:22:58.232Z,3.93
2023-04-15T00:25:24.626Z,3.74
2023-04-15T00:27:50.990Z,3.67
2023-04-15T00:30:17.388Z,3.60
2023-04-15T00:32:43.749Z,3.52
2023-04-15T00:35:10.164Z,3.48
2023-04-15T00:37:36.541Z,3.48
2023-04-15T00:40:03.212Z,3.44
2023-04-15T00:42:29.774Z,3.44
2023-04-15T00:44:56.121Z,3.28
2023-04-15T00:47:22.647Z,3.33
2023-04-15T00:49:49.152Z,3.13
2023-04-15T00:52:15.524Z,3.14
2023-04-15T00:54:41.885Z,3.08
2023-04-15T00:57:08.263Z,3.23
2023-04-15T00:59:34.614Z,3.10
2023-04-15T01:02:01.000Z,3.24
2023-04-15T01:04:27.641Z,3.11
2023-04-15T01:06:54.103Z,3.14
2023-04-15T01:09:20.438Z,3.13
2023-04-15T01:11:46.701Z,3.19
2023-04-15T01:14:13.574Z,3.03
2023-04-15T01:16:39.935Z,2.95
2023-04-15T01:19:08.429Z,2.98
2023-04-15T01:21:37.532Z,2.83
2023-04-15T01:24:09.338Z,2.69
2023-04-15T01:26:39.472Z,2.65
2023-04-15T01:29:05.971Z,2.57
2023-04-15T01:31:32.658Z,2.44
2023-04-15T01:34:00.790Z,2.49
2023-04-15T01:36:27.145Z,2.42
2023-04-15T01:38:53.658Z,2.47
2023-04-15T01:41:29.062Z,2.41
2023-04-15T01:43:55.431Z,2.22
2023-04-15T01:46:21.719Z,2.29
2023-04-15T01:48:48.056Z,2.12
2023-04-15T01:51:14.370Z,2.17
2023-04-15T01:53:40.752Z,1.99
2023-04-15T01:56:07.495Z,2.02
2023-04-15T01:58:33.925Z,2.08
2023-04-15T02:01:00.394Z,1.93
2023-04-15T02:03:26.829Z,1.92
2023-04-15T02:05:53.234Z,2.02
2023-04-15T02:08:19.508Z,2.05
2023-04-15T02:10:45.903Z,1.92
2023-04-15T02:13:12.153Z,2.04
2023-04-15T02:15:38.555Z,1.89
2023-04-15T02:18:05.143Z,1.93
2023-04-15T02:20:32.244Z,1.82
2023-04-15T02:22:58.580Z,1.61
2023-04-15T02:25:24.935Z,1.55
2023-04-15T02:27:51.210Z,1.65
2023-04-15T02:30:17.686Z,1.58
2023-04-15T02:32:44.126Z,1.57
2023-04-15T02:35:10.641Z,1.53
2023-04-15T02:37:37.983Z,1.52
2023-04-15T02:40:04.811Z,1.55
2023-04-15T02:42:31.113Z,1.61
2023-04-15T02:44:57.466Z,1.59
2023-04-15T02:47:23.791Z,1.63
2023-04-15T02:49:50.142Z,1.57
2023-04-15T02:52:16.433Z,1.64
2023-04-15T02:54:42.864Z,1.55
2023-04-15T02:57:09.243Z,1.60
2023-04-15T02:59:35.525Z,1.72
2023-04-15T03:02:01.962Z,1.61
2023-04-15T03:04:28.474Z,1.66
2023-04-15T03:06:54.701Z,1.73
2023-04-15T03:09:21.012Z,1.64
2023-04-15T03:11:47.291Z,1.69
2023-04-15T03:14:13.708Z,1.58
2023-04-15T03:16:40.078Z,1.65
2023-04-15T03:19:06.400Z,1.67
2023-04-15T03:21:32.739Z,1.55
2023-04-15T03:23:58.988Z,1.65
2023-04-15T03:26:30.275Z,1.60
2023-04-15T03:28:57.108Z,1.53
2023-04-15T03:31:23.841Z,1.65
2023-04-15T03:33:50.276Z,1.65
2023-04-15T03:36:16.859Z,1.88
2023-04-15T03:38:43.348Z,1.81
2023-04-15T03:41:09.728Z,2.12
2023-04-15T03:43:36.017Z,2.17
2023-04-15T03:46:02.663Z,2.15
2023-04-15T03:48:29.084Z,2.28
2023-04-15T03:50:55.444Z,2.20
2023-04-15T03:53:21.750Z,2.42
2023-04-15T03:55:48.147Z,2.44
2023-04-15T03:58:14.781Z,2.37
2023-04-15T04:00:41.182Z,2.39
2023-04-15T04:03:07.764Z,2.40
2023-04-15T04:05:34.668Z,2.46
2023-04-15T04:08:01.024Z,2.46
2023-04-15T04:10:27.352Z,2.48
2023-04-15T04:12:53.696Z,2.51
2023-04-15T04:15:19.988Z,2.55
2023-04-15T04:17:46.353Z,2.54
2023-04-15T04:20:12.642Z,2.68
2023-04-15T04:22:39.662Z,2.71
2023-04-15T04:25:06.936Z,2.71
2023-04-15T04:27:33.283Z,2.84
2023-04-15T04:29:59.549Z,2.92
2023-04-15T04:32:26.022Z,2.97
2023-04-15T04:34:52.453Z,3.00
2023-04-15T04:37:18.820Z,2.92
2023-04-15T04:39:45.159Z,2.94
2023-04-15T04:42:11.440Z,3.05
2023-04-15T04:44:37.796Z,2.97
2023-04-15T04:47:04.062Z,3.07
2023-04-15T04:49:30.445Z,3.06
2023-04-15T04:51:57.484Z,3.05
2023-04-15T04:54:23.903Z,3.19
2023-04-15T04:56:50.322Z,3.12
2023-04-15T04:59:17.027Z,3.20
2023-04-15T05:01:44.613Z,3.15
2023-04-15T05:04:11.186Z,3.20
2023-04-15T05:06:37.730Z,3.20
2023-04-15T05:09:04.169Z,3.34
2023-04-15T05:11:30.612Z,3.22
2023-04-15T05:13:56.962Z,3.21
2023-04-15T05:16:23.296Z,3.22
2023-04-15T05:18:49.678Z,3.04
2023-04-15T05:21:16.368Z,3.14
2023-04-15T05:23:42.888Z,3.14
2023-04-15T05:26:09.267Z,3.16
2023-04-15T05:28:35.580Z,3.18
2023-04-15T05:31:01.890Z,3.49
2023-04-15T05:33:28.341Z,3.73
2023-04-15T05:35:54.693Z,4.35
2023-04-15T05:38:21.077Z,4.73
2023-04-15T05:40:47.808Z,5.25
2023-04-15T05:43:14.174Z,5.84
2023-04-15T05:45:40.517Z,6.48
2023-04-15T05:48:07.033Z,6.90
2023-04-15T05:50:33.350Z,7.25
2023-04-15T05:53:00.250Z,7.76
2023-04-15T05:55:26.559Z,8.14
2023-04-15T05:57:52.972Z,8.43
2023-04-15T06:00:19.537Z,8.77
2023-04-15T06:02:46.134Z,9.20
2023-04-15T06:05:12.691Z,9.48
2023-04-15T06:07:39.238Z,9.78
2023-04-15T06:10:06.322Z,10.12
2023-04-15T06:12:32.955Z,10.48
2023-04-15T06:15:00.299Z,10.93
2023-04-15T06:17:26.934Z,11.11
2023-04-15T06:19:53.533Z,11.18
2023-04-15T06:22:19.910Z,11.19
2023-04-15T06:24:46.310Z,11.10
2023-04-15T06:27:12.682Z,11.05
2023-04-15T06:29:39.007Z,10.98
2023-04-15T06:32:05.586Z,11.13
2023-04-15T06:34:31.962Z,11.14
2023-04-15T06:36:58.338Z,11.03
2023-04-15T06:39:24.796Z,10.91
2023-04-15T06:41:51.185Z,10.66
2023-04-15T06:44:17.561Z,10.45
2023-04-15T06:46:44.221Z,10.29
2023-04-15T06:49:10.966Z,10.23
2023-04-15T06:51:37.469Z,10.06
2023-04-15T06:54:04.630Z,9.93
2023-04-15T06:56:31.264Z,9.75
2023-04-15T06:58:57.667Z,9.41
2023-04-15T07:01:24.166Z,9.30
2023-04-15T07:03:50.661Z,9.23
2023-04-15T07:06:17.062Z,9.19
2023-04-15T07:08:43.407Z,9.14
2023-04-15T07:11:09.797Z,8.98
2023-04-15T07:13:36.171Z,8.98
2023-04-15T07:16:02.605Z,8.96
2023-04-15T07:18:28.956Z,8.89
2023-04-15T07:20:55.413Z,8.95
2023-04-15T07:23:21.811Z,9.10
2023-04-15T07:25:48.130Z,9.41
2023-04-15T07:28:14.510Z,9.35
2023-04-15T07:30:40.884Z,9.23
2023-04-15T07:33:07.349Z,9.39
2023-04-15T07:35:33.838Z,9.36
2023-04-15T07:38:00.255Z,9.46
2023-04-15T07:40:27.108Z,9.44
2023-04-15T07:42:53.529Z,9.43
2023-04-15T07:45:19.977Z,9.33
2023-04-15T07:47:46.375Z,9.18
2023-04-15T07:50:12.709Z,9.21
2023-04-15T07:52:39.029Z,9.12
2023-04-15T07:55:07.042Z,9.24
2023-04-15T07:57:33.415Z,9.53
2023-04-15T08:00:00.772Z,9.66
2023-04-15T08:02:27.375Z,9.63
2023-04-15T08:04:53.987Z,9.57
2023-04-15T08:07:20.364Z,9.63
2023-04-15T08:09:46.779Z,9.48
2023-04-15T08:12:13.139Z,9.64
2023-04-15T08:14:39.881Z,9.60
2023-04-15T08:17:06.210Z,9.84
2023-04-15T08:19:32.653Z,9.91
2023-04-15T08:21:59.009Z,9.97
2023-04-15T08:24:25.405Z,10.03
2023-04-15T08:26:52.373Z,9.99
2023-04-15T08:29:18.716Z,9.99
2023-04-15T08:31:45.250Z,9.90
2023-04-15T08:34:12.025Z,9.83
2023-04-15T08:36:38.387Z,9.87
2023-04-15T08:39:05.080Z,10.03
2023-04-15T08:41:40.303Z,10.05
2023-04-15T08:44:06.735Z,10.08
2023-04-15T08:46:33.448Z,10.00
2023-04-15T08:49:01.357Z,9.94
2023-04-15T08:51:28.774Z,9.90
2023-04-15T08:53:55.470Z,9.67
2023-04-15T08:56:25.636Z,9.93
2023-04-15T08:58:53.136Z,9.91
2023-04-15T09:01:20.093Z,9.98
2023-04-15T09:03:49.394Z,10.17
2023-04-15T09:06:17.391Z,10.41
2023-04-15T09:08:46.064Z,10.36
2023-04-15T09:11:12.433Z,10.29
2023-04-15T09:13:39.152Z,10.49
2023-04-15T09:16:06.659Z,10.44
2023-04-15T09:18:35.081Z,10.29
2023-04-15T09:21:12.086Z,10.44
2023-04-15T09:23:40.526Z,10.33
2023-04-15T09:26:07.823Z,10.33
2023-04-15T09:28:41.903Z,10.43
2023-04-15T09:31:08.376Z,10.58
2023-04-15T09:33:34.881Z,10.69
2023-04-15T09:36:05.768Z,10.96
2023-04-15T09:38:32.563Z,11.28
2023-04-15T09:40:59.238Z,11.44
2023-04-15T09:43:41.224Z,11.77
2023-04-15T09:46:07.782Z,12.17
2023-04-15T09:48:34.248Z,12.42
2023-04-15T09:51:01.897Z,12.25
2023-04-15T09:53:30.554Z,11.91
2023-04-15T09:56:00.200Z,11.68
2023-04-15T09:58:28.358Z,11.46
2023-04-15T10:00:56.381Z,11.08
2023-04-15T10:03:22.852Z,10.85
2023-04-15T10:05:51.601Z,10.75
2023-04-15T10:08:33.300Z,10.65
2023-04-15T10:11:02.476Z,10.60
2023-04-15T10:13:31.415Z,10.57
2023-04-15T10:16:00.444Z,10.94
2023-04-15T10:18:28.548Z,11.34
2023-04-15T10:20:55.659Z,11.62
2023-04-15T10:23:23.406Z,11.61
2023-04-15T10:25:52.685Z,11.75
2023-04-15T10:28:20.786Z,11.88
2023-04-15T10:30:48.368Z,11.94
2023-04-15T10:33:16.704Z,11.76
2023-04-15T10:35:44.019Z,11.64
2023-04-15T10:38:38.951Z,11.66
2023-04-15T10:41:21.197Z,11.47
2023-04-15T10:43:50.249Z,11.37
2023-04-15T10:46:38.064Z,11.31
2023-04-15T10:49:12.154Z,11.17
2023-04-15T10:51:42.362Z,11.07
2023-04-15T10:54:16.943Z,11.14
2023-04-15T10:56:50.861Z,11.07
2023-04-15T10:59:17.234Z,11.50
2023-04-15T11:02:02.790Z,11.57
2023-04-15T11:04:56.691Z,11.55
2023-04-15T11:07:40.084Z,11.45
2023-04-15T11:10:32.273Z,11.34
2023-04-15T11:13:00.699Z,11.08
2023-04-15T11:15:38.253Z,10.85
2023-04-15T11:18:10.607Z,10.67
2023-04-15T11:20:38.274Z,10.47
2023-04-15T11:23:08.175Z,10.61
2023-04-15T11:25:42.839Z,10.53
2023-04-15T11:28:09.254Z,10.66
2023-04-15T11:30:37.195Z,10.56
2023-04-15T11:33:05.767Z,10.50
2023-04-15T11:35:32.617Z,10.63
2023-04-15T11:38:03.028Z,10.73
2023-04-15T11:40:30.351Z,10.77
2023-04-15T11:43:19.174Z,10.76
2023-04-15T11:45:56.060Z,10.98
2023-04-15T11:48:27.188Z,11.32
2023-04-15T11:50:55.570Z,11.31
2023-04-15T11:53:22.919Z,11.39
2023-04-15T11:55:51.267Z,11.19
2023-04-15T11:58:20.801Z,11.18
2023-04-15T12:00:54.447Z,11.39
2023-04-15T12:03:31.673Z,11.46
2023-04-15T12:06:05.417Z,11.80
2023-04-15T12:08:59.539Z,12.06
2023-04-15T12:11:38.005Z,12.37
2023-04-15T12:14:09.260Z,12.27
2023-04-15T12:16:46.713Z,12.43
2023-04-15T12:19:44.619Z,12.23
2023-04-15T12:22:16.298Z,11.95
2023-04-15T12:24:44.452Z,11.90
2023-04-15T12:27:12.355Z,11.81
2023-04-15T12:29:40.518Z,11.64
2023-04-15T12:32:14.663Z,11.43
2023-04-15T12:34:43.022Z,11.35
2023-04-15T12:37:11.284Z,11.21
2023-04-15T12:39:40.209Z,11.09
2023-04-15T12:42:07.354Z,11.25
2023-04-15T12:44:34.146Z,11.21
2023-04-15T12:47:00.696Z,11.31
2023-04-15T12:49:27.614Z,11.45
2023-04-15T12:51:56.576Z,11.52
2023-04-15T12:54:23.097Z,11.66
2023-04-15T12:56:50.498Z,11.45
2023-04-15T12:59:17.610Z,11.25
2023-04-15T13:01:44.997Z,11.11
2023-04-15T13:04:11.577Z,10.92
2023-04-15T13:06:38.030Z,10.75
2023-04-15T13:09:05.965Z,10.69
2023-04-15T13:11:33.448Z,10.69
2023-04-15T13:14:05.505Z,10.52
2023-04-15T13:16:33.388Z,10.46
2023-04-15T13:19:00.405Z,10.40
2023-04-15T13:21:27.579Z,10.31
2023-04-15T13:23:54.530Z,10.25
2023-04-15T13:26:21.031Z,10.17
2023-04-15T13:28:47.797Z,10.18
2023-04-15T13:31:14.265Z,10.14
2023-04-15T13:33:40.645Z,10.03
2023-04-15T13:36:07.042Z,10.06
2023-04-15T13:38:33.365Z,9.92
2023-04-15T13:40:59.784Z,9.91
2023-04-15T13:43:26.166Z,9.89
2023-04-15T13:45:52.612Z,9.98
2023-04-15T13:48:19.016Z,9.86
2023-04-15T13:50:45.425Z,9.81
2023-04-15T13:53:12.538Z,9.74
2023-04-15T13:55:39.094Z,9.77
2023-04-15T13:58:05.396Z,9.87
2023-04-15T14:00:31.907Z,9.70
2023-04-15T14:02:58.402Z,9.75
2023-04-15T14:05:24.811Z,9.65
2023-04-15T14:07:51.217Z,9.52
2023-04-15T14:10:17.778Z,9.43
2023-04-15T14:12:44.153Z,9.39
2023-04-15T14:15:10.608Z,9.41
2023-04-15T14:17:37.056Z,9.49
2023-04-15T14:20:03.810Z,9.46
2023-04-15T14:22:30.180Z,9.37
2023-04-15T14:24:56.530Z,9.42
2023-04-15T14:27:23.105Z,9.34
2023-04-15T14:29:49.465Z,9.45
2023-04-15T14:32:17.271Z,9.58
2023-04-15T14:34:43.715Z,9.50
2023-04-15T14:37:10.186Z,9.47
2023-04-15T14:39:36.582Z,9.50
2023-04-15T14:42:03.003Z,9.54
2023-04-15T14:44:29.370Z,9.31
2023-04-15T14:46:55.897Z,9.37
2023-04-15T14:49:22.281Z,9.31
2023-04-15T14:51:48.629Z,9.38
2023-04-15T14:54:15.075Z,9.37
2023-04-15T14:56:41.440Z,9.48
2023-04-15T14:59:10.088Z,9.65
2023-04-15T15:01:36.638Z,9.71
2023-04-15T15:04:03.984Z,9.78
2023-04-15T15:06:30.523Z,9.97
2023-04-15T15:08:56.858Z,9.92
2023-04-15T15:11:23.240Z,9.75
2023-04-15T15:13:49.625Z,9.83
2023-04-15T15:16:16.123Z,9.70
2023-04-15T15:18:42.481Z,9.60
2023-04-15T15:21:08.816Z,9.47
2023-04-15T15:23:35.226Z,9.42
2023-04-15T15:26:01.610Z,9.38
2023-04-15T15:28:27.988Z,9.24
2023-04-15T15:30:54.541Z,9.14
2023-04-15T15:33:20.919Z,9.15
2023-04-15T15:35:47.367Z,9.10
2023-04-15T15:38:13.715Z,9.20
2023-04-15T15:40:40.189Z,9.06
2023-04-15T15:43:06.485Z,9.07
2023-04-15T15:45:32.962Z,8.95
2023-04-15T15:48:01.756Z,8.88
2023-04-15T15:50:28.172Z,8.89
2023-04-15T15:52:54.611Z,8.82
2023-04-15T15:55:20.994Z,8.76
2023-04-15T15:57:47.379Z,8.75
2023-04-15T16:00:14.183Z,8.71
2023-04-15T16:03:05.223Z,8.66
2023-04-15T16:05:27.082Z,8.55
2023-04-15T16:07:53.445Z,8.54
2023-04-15T16:10:19.802Z,8.58
2023-04-15T16:12:46.229Z,8.58
2023-04-15T16:15:12.926Z,8.55
2023-04-15T16:17:39.413Z,8.53
2023-04-15T16:20:06.383Z,8.58
2023-04-15T16:22:34.030Z,8.58
2023-04-15T16:25:00.459Z,8.49
2023-04-15T16:27:27.446Z,8.48
2023-04-15T16:29:53.890Z,8.36
2023-04-15T16:32:20.490Z,8.49
2023-04-15T16:34:47.527Z,8.51
2023-04-15T16:37:13.904Z,8.47
2023-04-15T16:39:40.282Z,8.43
2023-04-15T16:42:06.621Z,8.31
2023-04-15T16:44:32.976Z,8.32
2023-04-15T16:46:59.337Z,8.26
2023-04-15T16:49:25.658Z,8.36
2023-04-15T16:51:54.085Z,8.23
2023-04-15T16:54:20.928Z,8.28
2023-04-15T16:56:47.303Z,8.21
2023-04-15T16:59:13.638Z,8.18
2023-04-15T17:01:40.218Z,8.15
2023-04-15T17:04:07.205Z,8.28
2023-04-15T17:06:33.610Z,8.27
2023-04-15T17:08:59.962Z,8.21
2023-04-15T17:11:28.031Z,8.22
2023-04-15T17:13:54.387Z,8.29
2023-04-15T17:16:20.846Z,8.07
2023-04-15T17:18:47.203Z,8.14
2023-04-15T17:21:13.559Z,8.07
2023-04-15T17:23:39.910Z,7.99
2023-04-15T17:26:06.252Z,7.95
2023-04-15T17:28:32.722Z,7.92
2023-04-15T17:30:59.210Z,7.92
2023-04-15T17:34:00.341Z,7.85
2023-04-15T17:36:13.015Z,7.82
2023-04-15T17:38:39.391Z,7.73
2023-04-15T17:41:05.807Z,7.77
2023-04-15T17:43:32.248Z,7.83
2023-04-15T17:45:58.732Z,7.81
2023-04-15T17:48:25.816Z,7.77
2023-04-15T17:50:52.229Z,7.74
2023-04-15T17:53:18.849Z,7.77
2023-04-15T17:55:45.379Z,7.78
2023-04-15T17:58:11.918Z,7.77
2023-04-15T18:00:38.415Z,7.78
2023-04-15T18:03:04.868Z,7.76
2023-04-15T18:05:31.309Z,7.81
2023-04-15T18:07:57.671Z,7.77
2023-04-15T18:10:24.044Z,7.89
2023-04-15T18:12:50.372Z,7.75
2023-04-15T18:15:16.824Z,7.82
2023-04-15T18:17:43.270Z,7.69
2023-04-15T18:20:10.084Z,7.68
2023-04-15T18:22:36.447Z,7.70
2023-04-15T18:25:03.387Z,7.81
2023-04-15T18:27:34.170Z,7.71
2023-04-15T18:30:00.654Z,7.79
2023-04-15T18:32:27.063Z,7.75
2023-04-15T18:34:53.436Z,7.73
2023-04-15T18:37:19.784Z,7.66
2023-04-15T18:39:46.113Z,7.66
2023-04-15T18:42:12.512Z,7.65
2023-04-15T18:44:38.895Z,7.52
2023-04-15T18:47:05.397Z,7.51
2023-04-15T18:49:32.236Z,7.50
2023-04-15T18:51:59.075Z,7.49
2023-04-15T18:54:25.466Z,7.41
2023-04-15T18:56:51.860Z,7.39
2023-04-15T18:59:29.325Z,7.35
2023-04-15T19:01:57.161Z,7.37
2023-04-15T19:04:24.579Z,7.32
2023-04-15T19:06:51.155Z,7.21
2023-04-15T19:09:17.502Z,7.26
2023-04-15T19:11:44.010Z,7.32
2023-04-15T19:14:10.661Z,7.26
2023-04-15T19:16:37.181Z,7.31
2023-04-15T19:19:03.878Z,7.26
2023-04-15T19:21:31.937Z,7.24
2023-04-15T19:23:58.681Z,7.25
2023-04-15T19:26:25.172Z,7.08
2023-04-15T19:28:51.555Z,7.10
2023-04-15T19:31:17.964Z,7.17
2023-04-15T19:33:44.388Z,7.23
2023-04-15T19:36:10.769Z,7.11
2023-04-15T19:38:37.099Z,7.05
2023-04-15T19:41:03.974Z,7.21
2023-04-15T19:43:32.484Z,7.28
2023-04-15T19:45:58.993Z,7.28
2023-04-15T19:48:25.636Z,7.25
2023-04-15T19:50:51.975Z,7.17
2023-04-15T19:53:18.408Z,7.23
2023-04-15T19:55:44.779Z,7.16
2023-04-15T19:58:11.128Z,7.18
2023-04-15T20:00:37.990Z,7.25
2023-04-15T20:03:04.950Z,7.12
2023-04-15T20:05:31.445Z,7.12
2023-04-15T20:07:59.800Z,7.07
2023-04-15T20:10:26.373Z,7.17
2023-04-15T20:12:53.476Z,7.14
2023-04-15T20:15:20.490Z,7.14
2023-04-15T20:17:46.966Z,7.23
2023-04-15T20:20:13.530Z,7.13
2023-04-15T20:22:39.980Z,7.18
2023-04-15T20:25:06.929Z,7.23
2023-04-15T20:27:33.345Z,7.26
2023-04-15T20:29:59.751Z,7.21
2023-04-15T20:32:26.240Z,7.19
2023-04-15T20:34:52.550Z,7.26
2023-04-15T20:37:18.834Z,7.24
2023-04-15T20:39:45.229Z,7.12
2023-04-15T20:42:11.619Z,7.21
2023-04-15T20:44:37.990Z,7.25
2023-04-15T20:47:08.063Z,7.14
2023-04-15T20:49:35.664Z,7.10
2023-04-15T20:52:02.862Z,7.18
2023-04-15T20:54:29.205Z,7.25
2023-04-15T20:56:56.529Z,7.10
2023-04-15T20:59:22.938Z,7.19
2023-04-15T21:01:49.541Z,7.21
2023-04-15T21:04:16.003Z,7.17
2023-04-15T21:06:42.520Z,7.19
2023-04-15T21:09:08.850Z,7.10
2023-04-15T21:11:53.399Z,7.15
2023-04-15T21:14:21.627Z,7.16
2023-04-15T21:16:48.244Z,7.18
2023-04-15T21:19:14.710Z,7.19
2023-04-15T21:21:41.081Z,7.16
2023-04-15T21:24:07.594Z,7.16
2023-04-15T21:26:34.071Z,7.12
2023-04-15T21:29:00.436Z,7.17
2023-04-15T21:31:26.886Z,7.30
2023-04-15T21:33:53.292Z,7.26
2023-04-15T21:36:19.594Z,7.25
2023-04-15T21:38:45.962Z,7.34
2023-04-15T21:41:12.356Z,7.25
2023-04-15T21:43:38.724Z,7.34
2023-04-15T21:46:22.178Z,7.24
2023-04-15T21:48:50.417Z,7.32
2023-04-15T21:51:16.866Z,7.29
2023-04-15T21:53:43.250Z,7.29
2023-04-15T21:56:09.633Z,7.25
2023-04-15T21:58:36.061Z,7.28
2023-04-15T22:01:03.660Z,7.30
2023-04-15T22:03:31.689Z,7.33
2023-04-15T22:05:58.100Z,7.41
2023-04-15T22:08:24.486Z,7.38
2023-04-15T22:10:50.953Z,7.40
2023-04-15T22:13:18.022Z,7.36
2023-04-15T22:15:44.363Z,7.36
2023-04-15T22:18:12.408Z,7.37
2023-04-15T22:20:39.226Z,7.30
2023-04-15T22:23:05.719Z,7.46
2023-04-15T22:25:32.074Z,7.29
2023-04-15T22:27:58.413Z,7.38
2023-04-15T22:30:25.058Z,7.37
2023-04-15T22:32:51.629Z,7.40
2023-04-15T22:35:18.135Z,7.55
2023-04-15T22:37:44.531Z,7.51
2023-04-15T22:40:11.327Z,7.51
2023-04-15T22:42:37.689Z,7.49
2023-04-15T22:45:04.410Z,7.57
2023-04-15T22:47:30.822Z,7.55
2023-04-15T22:49:57.189Z,7.52
2023-04-15T22:52:30.057Z,7.62
2023-04-15T22:54:57.263Z,7.54
2023-04-15T22:57:23.652Z,7.52
2023-04-15T22:59:50.035Z,7.49
2023-04-15T23:02:16.435Z,7.56
2023-04-15T23:04:42.934Z,7.49
2023-04-15T23:07:09.371Z,7.55
2023-04-15T23:09:35.796Z,7.64
2023-04-15T23:12:02.940Z,7.62
2023-04-15T23:14:29.686Z,7.53
2023-04-15T23:16:57.432Z,7.67
2023-04-15T23:19:24.294Z,7.62
2023-04-15T23:21:50.965Z,7.64
2023-04-15T23:24:17.365Z,7.65
2023-04-15T23:26:43.740Z,7.77
2023-04-15T23:29:10.277Z,7.70
2023-04-15T23:31:36.852Z,7.68
2023-04-15T23:34:03.863Z,7.70
2023-04-15T23:36:30.288Z,7.73
2023-04-15T23:38:56.906Z,7.63
2023-04-15T23:41:23.312Z,7.64
2023-04-15T23:43:49.706Z,7.67
2023-04-15T23:46:16.711Z,7.64
2023-04-15T23:48:43.068Z,7.66
2023-04-15T23:51:09.477Z,7.67
2023-04-15T23:53:35.867Z,7.68
2023-04-15T23:56:02.240Z,7.70
2023-04-15T23:58:28.783Z,7.56
